Al, Norway

6:15 PM CEST on July 24, 2014 (GMT +0200)
Aal i Hallingdal (IBUSKERU46) Elev 1475 ft | 60.62 °N, 8.52 °E | Change Station

Current weather conditions updated 16 seconds ago

Scattered Clouds
Scattered Clouds
79.2 °F
Feels Like 80 °F
N
0.0
Wind Variable Wind from North
Gusts 1.0 mph

Tomorrow is forecast to be Cooler than today. Showers and thunderstorms.

Today
High -- | Low -- °F
--% Chance of Precip.
Yesterday
High -- | Low -- °F
Precip. -- in
4:42 AM 10:20 PM
Waning Crescent, 5% visible
Pressure 30.21 in
Visibility 6.2 miles
Clouds Few 6000 ft
Scattered Clouds 7500 ft
Heat Index 80 °F
Dew Point 55 °F
Humidity 44%
Rainfall 0.00 in
Snow Depth Not available.
UV 3 out of 12
Pollen Not available.
Air Quality Not available.
Flu Activity Not available.
METAR ENSG 241550Z 04006KT 020V090 9999 FEW060 SCT075TCU 26/12 Q1023 RMK

More Conditions Fewer Conditions

Pressure 30.21 in
Visibility 6.2 miles
Clouds Few 6000 ft
Scattered Clouds 7500 ft
Heat Index 80 °F
Dew Point 55 °F
Humidity 44%
Rainfall 0.00 in
Snow Depth Not available.
UV 3 out of 12
Pollen Not available.
Air Quality Not available.
Flu Activity Not available.
METAR ENSG 241550Z 04006KT 020V090 9999 FEW060 SCT075TCU 26/12 Q1023 RMK

More Conditions Fewer Conditions

10-Day Weather Forecast

Almanac

Astronomy

Jul. 24, 2014 Rise Set
Actual Time 4:42 AM CEST 10:20 PM CEST
Civil Twilight 3:30 AM CEST 11:31 PM CEST
Nautical Twilight 2:04 AM CEST 12:59 AM CEST
Astronomical Twilight Sun does not rise Sun does not rise
Moon 2:45 AM CEST 8:12 PM CEST
Length of Visible Light 20h 01m
Length of Day
17h 37m
Tomorrow will be 4m 39s shorter.
Waning Crescent, 5% of the Moon is Illuminated
Today
Waning Crescent
Jul 26
New
Aug 3
First Quarter
Aug 10
Full
Aug 17
Last Quarter

Today's Extremes

Country Highs Country Lows

Community

WunderPhotos

Upload Photos

1,737,056 photos uploaded!

Nearby

Snow Depth

Not available.

Earthquake Activity

City Distance Mag. Time & Date
No recent earthquake activity has been reported nearby.
Minimum magnitude displayed is 2.5.

Coastal Water Temperatures

Place Temperature
No Stations Reporting

Nearby Weather Stations

Station Location Temp. Heat Index Dew Point Humidity Wind Precip. Elev Updated Type
Aal i Hallingdal, Aal 79.2 °F 80 °F 55 °F 44% North  at  0.0 mph 0.00 in / hr 1475 ft 6:15 PM CEST Normal
Aal Skisenter bunnstasjon, Aal 78.4 °F 78 °F 44 °F 29% North  at  0.0 mph 0.00 in / hr 2165 ft 6:15 PM CEST Rapid Fire

Show More Stations Show Fewer Stations